Tazewell, Virginia
Current Conditions -  °F | °C
As of 9:15 PM on Saturday 22 Nov 2014 (Local Time) from KJFZ Reporting Station
Clear Clear  
Wind Chill: 45°   Ceiling: Unl
Heat Index: 48°   Visibility: 10mi
Dew Point: 16°   Wind: 7mph
Humidity: 27%   Direction: 150°SSE
Pressure: 30.21"   Gusts: NA
Location:  37.11°N, 81.52°W
Report Text: KJFZ 230215Z AUTO 15006KT 10SM CLR 09/M09 A3021 RMK AO2 T00911089
Loading
Personal Weather Stations






























Interactive Weather Map New forecast layout! Learn more

10-Day Weather Forecast

Advertisements
Track Severe Weather on mobile